CheckWX is a tool to help pilots better visualize weather data.  It is not intended as a substitute for an official pre-flight weather briefing.

15:18:14 UTC

EDDM METAR
Munich International Airport
Munich, Germany
Current

28 mins ago

EDDM 201450Z 27007KT 240V300 9999 -RA SCT011 SCT035 13/12 Q1002 NOSIG
Observed
May-20 @ 14:50 UTC
Wind
  • 270° at 7 KTS
Visibility
10,000+ meters
Flight Rules
VFR
Conditions
Light Rain
Cloud Levels
  • Scattered at 1,100' AGL
  • Scattered at 3,500' AGL
Temperature
13°C / 55°F
Dewpoint
12°C / 54°F
Humidity
94%
Altimeter
29.59" Hg
Pressure
1001.92 hPa
Previous

58 mins ago

EDDM 201420Z 26007KT 9999 -RA FEW015 SCT023 13/11 Q1002 NOSIG
Observed
May-20 @ 14:20 UTC
Wind
  • 260° at 7 KTS
Visibility
10,000+ meters
Flight Rules
VFR
Conditions
Light Rain
Cloud Levels
  • Few at 1,500' AGL
  • Scattered at 2,300' AGL
Temperature
13°C / 55°F
Dewpoint
11°C / 52°F
Humidity
88%
Altimeter
29.59" Hg
Pressure
1001.92 hPa
Previous

1 hour ago

EDDM 201350Z 27006KT 240V300 9999 -RA FEW015 SCT040 13/11 Q1002 NOSIG
Observed
May-20 @ 13:50 UTC
Wind
  • 270° at 6 KTS
Visibility
10,000+ meters
Flight Rules
VFR
Conditions
Light Rain
Cloud Levels
  • Few at 1,500' AGL
  • Scattered at 4,000' AGL
Temperature
13°C / 55°F
Dewpoint
11°C / 52°F
Humidity
88%
Altimeter
29.59" Hg
Pressure
1001.92 hPa